createdAt,value
2017-12-12T00:02:31.482Z,120514.73
2017-12-12T00:05:08.086Z,120514.73
2017-12-12T00:07:42.962Z,120514.73
2017-12-12T00:10:17.414Z,120514.73
2017-12-12T00:12:51.905Z,120514.73
2017-12-12T00:15:26.298Z,120514.73
2017-12-12T00:18:00.744Z,120514.73
2017-12-12T00:20:35.354Z,120514.73
2017-12-12T00:23:09.750Z,120514.73
2017-12-12T00:25:45.746Z,120514.73
2017-12-12T00:28:20.873Z,120514.73
2017-12-12T00:30:55.378Z,120514.73
2017-12-12T00:33:30.235Z,120514.73
2017-12-12T00:36:04.995Z,120514.73
2017-12-12T00:38:39.934Z,120514.73
2017-12-12T00:41:14.410Z,120514.73
2017-12-12T00:43:49.119Z,120514.73
2017-12-12T00:46:23.532Z,120514.73
2017-12-12T00:48:58.047Z,120514.73
2017-12-12T00:51:32.535Z,120514.73
2017-12-12T00:54:07.250Z,120514.73
2017-12-12T00:56:41.638Z,120514.73
2017-12-12T00:59:16.179Z,120514.73
2017-12-12T01:01:51.352Z,120514.73
2017-12-12T01:04:26.014Z,120514.73
2017-12-12T01:07:00.527Z,120514.73
2017-12-12T01:09:35.044Z,120514.73
2017-12-12T01:12:09.438Z,120514.73
2017-12-12T01:14:43.995Z,120514.73
2017-12-12T01:17:18.446Z,120514.73
2017-12-12T01:19:52.827Z,120514.73
2017-12-12T01:22:28.688Z,120514.73
2017-12-12T01:27:43.972Z,120514.73
2017-12-12T01:30:18.434Z,120514.73
2017-12-12T01:32:52.979Z,120514.73
2017-12-12T01:35:27.435Z,120514.73
2017-12-12T01:38:01.839Z,120514.73
2017-12-12T01:40:35.905Z,120514.73
2017-12-12T01:43:09.979Z,120514.73
2017-12-12T01:45:44.046Z,120514.73
2017-12-12T01:48:18.622Z,120514.73
2017-12-12T01:50:53.657Z,120514.73
2017-12-12T01:53:28.194Z,120514.73
2017-12-12T01:56:02.259Z,120514.73
2017-12-12T01:58:37.069Z,120514.73
2017-12-12T02:01:12.878Z,120514.73
2017-12-12T02:03:49.127Z,120514.73
2017-12-12T02:06:23.916Z,120514.73
2017-12-12T02:08:58.321Z,120514.73
2017-12-12T02:11:32.743Z,120514.73
2017-12-12T02:14:07.334Z,120514.73
2017-12-12T02:16:41.379Z,120514.73
2017-12-12T02:19:15.476Z,120514.73
2017-12-12T02:21:50.424Z,120514.73
2017-12-12T02:24:24.736Z,120514.73
2017-12-12T02:26:58.994Z,120514.73
2017-12-12T02:29:33.185Z,120514.73
2017-12-12T02:32:07.232Z,120514.73
2017-12-12T02:34:41.578Z,120514.73
2017-12-12T02:37:15.690Z,120514.73
2017-12-12T02:39:49.907Z,120514.73
2017-12-12T02:42:24.747Z,120514.73
2017-12-12T02:44:59.618Z,120514.73
2017-12-12T02:47:33.890Z,120514.73
2017-12-12T02:50:13.278Z,120514.73
2017-12-12T02:52:47.448Z,120514.73
2017-12-12T02:55:21.550Z,120514.73
2017-12-12T02:57:55.883Z,120514.73
2017-12-12T03:00:30.947Z,120514.73
2017-12-12T03:03:05.067Z,120514.73
2017-12-12T03:05:39.288Z,120514.73
2017-12-12T03:08:13.414Z,120514.73
2017-12-12T03:10:48.343Z,120514.73
2017-12-12T03:13:22.493Z,120514.73
2017-12-12T03:15:56.738Z,120514.73
2017-12-12T03:18:30.878Z,120514.73
2017-12-12T03:21:05.079Z,120514.73
2017-12-12T03:23:39.319Z,120514.73
2017-12-12T03:26:13.434Z,120514.73
2017-12-12T03:28:47.645Z,120514.73
2017-12-12T03:31:22.789Z,120514.73
2017-12-12T03:33:57.056Z,120514.73
2017-12-12T03:36:31.907Z,120514.73
2017-12-12T03:39:06.162Z,120514.73
2017-12-12T03:41:40.582Z,120514.73
2017-12-12T03:44:15.126Z,97404.16
2017-12-12T03:46:49.244Z,97405.45
2017-12-12T03:49:23.396Z,97418.47
2017-12-12T03:51:57.435Z,97413.05
2017-12-12T03:54:32.308Z,97440.39
2017-12-12T03:57:06.833Z,97434.25
2017-12-12T03:59:41.537Z,97413.11
2017-12-12T04:02:15.719Z,97417.92
2017-12-12T04:04:50.734Z,97429.16
2017-12-12T04:07:24.859Z,97455.19
2017-12-12T04:09:58.901Z,97434.94
2017-12-12T04:12:33.298Z,97454.25
2017-12-12T04:15:13.868Z,97473.73
2017-12-12T04:17:48.310Z,97494.47
2017-12-12T04:20:22.470Z,97491.02
2017-12-12T04:22:56.515Z,97505.17
2017-12-12T04:25:30.525Z,97515.13
2017-12-12T04:28:04.748Z,97502.78
2017-12-12T04:30:39.287Z,97538.89
2017-12-12T04:33:13.710Z,97560.06
2017-12-12T04:35:48.254Z,97545.23
2017-12-12T04:38:22.402Z,97550.60
2017-12-12T04:40:58.925Z,97586.13
2017-12-12T04:43:33.750Z,97607.67
2017-12-12T04:46:07.902Z,97588.14
2017-12-12T04:48:42.002Z,97597.05
2017-12-12T04:51:16.106Z,97585.31
2017-12-12T04:53:50.394Z,97614.87
2017-12-12T04:56:24.810Z,97630.22
2017-12-12T04:58:59.861Z,97619.25
2017-12-12T05:01:34.193Z,97640.14
2017-12-12T05:04:08.223Z,97653.37
2017-12-12T05:06:42.654Z,97661.36
2017-12-12T05:09:16.781Z,97672.41
2017-12-12T05:11:50.881Z,97687.83
2017-12-12T05:14:25.086Z,97681.64
2017-12-12T05:16:59.216Z,97698.56
2017-12-12T05:19:33.309Z,97718.66
2017-12-12T05:22:07.339Z,97714.66
2017-12-12T05:24:41.602Z,97739.32
2017-12-12T05:27:15.994Z,97751.70
2017-12-12T05:29:50.439Z,97747.38
2017-12-12T05:32:24.854Z,97742.62
2017-12-12T05:34:58.893Z,97730.78
2017-12-12T05:37:33.945Z,97768.55
2017-12-12T05:40:08.756Z,97774.55
2017-12-12T05:42:42.914Z,97776.98
2017-12-12T05:45:17.013Z,97780.88
2017-12-12T05:47:51.199Z,97789.21
2017-12-12T05:50:25.254Z,97802.11
2017-12-12T05:53:00.421Z,97782.85
2017-12-12T05:55:34.453Z,97794.58
2017-12-12T05:58:08.536Z,97789.61
2017-12-12T06:00:42.616Z,97793.03
2017-12-12T06:03:17.281Z,97811.13
2017-12-12T06:05:51.686Z,97827.27
2017-12-12T06:08:25.896Z,97824.10
2017-12-12T06:11:01.078Z,97821.27
2017-12-12T06:13:35.802Z,97829.84
2017-12-12T06:16:10.470Z,97844.06
2017-12-12T06:18:45.062Z,97844.73
2017-12-12T06:21:19.375Z,97871.02
2017-12-12T06:23:53.511Z,97888.66
2017-12-12T06:26:27.961Z,97902.48
2017-12-12T06:29:03.031Z,97911.61
2017-12-12T06:31:37.071Z,97916.25
2017-12-12T06:34:12.134Z,97917.31
2017-12-12T06:36:46.658Z,97927.31
2017-12-12T06:39:20.852Z,97941.75
2017-12-12T06:41:55.647Z,97937.59
2017-12-12T06:44:29.880Z,97960.11
2017-12-12T06:47:04.379Z,97961.02
2017-12-12T06:49:43.835Z,97966.80
2017-12-12T06:52:18.140Z,97977.50
2017-12-12T06:54:54.035Z,97982.63
2017-12-12T06:57:29.015Z,97980.97
2017-12-12T07:02:43.003Z,98004.01
2017-12-12T07:05:17.654Z,98010.86
2017-12-12T07:07:52.649Z,98016.52
2017-12-12T07:10:27.486Z,98007.09
2017-12-12T07:13:02.236Z,97979.94
2017-12-12T07:15:36.474Z,98020.34
2017-12-12T07:18:10.681Z,98010.09
2017-12-12T07:20:45.970Z,98020.98
2017-12-12T07:23:21.107Z,98016.73
2017-12-12T07:25:55.494Z,98023.89
2017-12-12T07:28:29.906Z,98037.47
2017-12-12T07:31:04.361Z,98044.16
2017-12-12T07:33:38.526Z,98045.18
2017-12-12T07:36:12.929Z,98047.45
2017-12-12T07:38:47.425Z,98062.06
2017-12-12T07:41:21.958Z,98063.88
2017-12-12T07:43:56.491Z,98067.57
2017-12-12T07:46:30.890Z,98061.34
2017-12-12T07:49:05.286Z,98075.69
2017-12-12T07:51:39.972Z,98076.75
2017-12-12T07:54:14.370Z,98098.53
2017-12-12T07:56:49.169Z,98099.66
2017-12-12T07:59:24.177Z,98108.17
2017-12-12T08:01:58.770Z,98125.77
2017-12-12T08:04:33.414Z,98124.91
2017-12-12T08:07:07.702Z,98135.57
2017-12-12T08:09:41.817Z,98133.22
2017-12-12T08:12:17.287Z,98132.11
2017-12-12T08:14:51.860Z,98132.19
2017-12-12T08:17:26.310Z,98148.26
2017-12-12T08:20:00.804Z,98146.73
2017-12-12T08:22:34.866Z,98154.26
2017-12-12T08:25:14.352Z,98152.39
2017-12-12T08:27:49.833Z,98154.31
2017-12-12T08:30:24.371Z,98144.05
2017-12-12T08:32:58.877Z,98146.05
2017-12-12T08:35:34.001Z,98143.45
2017-12-12T08:38:08.494Z,98145.72
2017-12-12T08:40:42.923Z,98162.81
2017-12-12T08:43:17.414Z,98179.16
2017-12-12T08:45:51.861Z,98175.05
2017-12-12T08:48:26.335Z,98168.73
2017-12-12T08:51:00.766Z,98169.19
2017-12-12T08:53:37.606Z,98176.54
2017-12-12T08:56:12.400Z,98197.30
2017-12-12T08:58:47.225Z,98201.52
2017-12-12T09:01:21.738Z,98205.04
2017-12-12T09:03:56.990Z,98220.21
2017-12-12T09:06:31.377Z,98229.55
2017-12-12T09:09:05.309Z,98232.25
2017-12-12T09:11:39.434Z,98246.44
2017-12-12T09:14:13.878Z,98261.84
2017-12-12T09:16:48.343Z,98246.55
2017-12-12T09:19:22.712Z,98248.22
2017-12-12T09:21:57.290Z,98247.89
2017-12-12T09:24:31.622Z,98254.36
2017-12-12T09:27:06.118Z,98252.40
2017-12-12T09:29:40.478Z,98244.95
2017-12-12T09:32:14.898Z,98257.55
2017-12-12T09:34:49.303Z,98268.76
2017-12-12T09:37:24.836Z,98282.16
2017-12-12T09:39:59.425Z,98281.96
2017-12-12T09:42:33.582Z,98299.27
2017-12-12T09:45:13.518Z,98303.44
2017-12-12T09:47:48.112Z,98308.54
2017-12-12T09:50:22.539Z,98311.71
2017-12-12T09:52:57.253Z,98304.92
2017-12-12T09:55:31.798Z,98304.30
2017-12-12T09:58:08.423Z,98301.85
2017-12-12T10:00:42.609Z,98303.75
2017-12-12T10:03:17.089Z,98307.70
2017-12-12T10:05:51.570Z,98306.77
2017-12-12T10:08:26.138Z,98313.42
2017-12-12T10:11:00.486Z,98314.13
2017-12-12T10:13:35.039Z,98315.19
2017-12-12T10:16:09.085Z,98323.81
2017-12-12T10:18:43.695Z,98329.66
2017-12-12T10:21:18.179Z,98331.27
2017-12-12T10:23:53.667Z,98301.36
2017-12-12T10:26:29.436Z,98288.44
2017-12-12T10:29:03.855Z,98290.80
2017-12-12T10:31:38.373Z,98279.04
2017-12-12T10:34:13.346Z,98303.05
2017-12-12T10:36:47.288Z,98310.28
2017-12-12T10:39:21.778Z,98315.91
2017-12-12T10:41:55.574Z,98321.91
2017-12-12T10:44:29.721Z,98327.67
2017-12-12T10:47:03.632Z,98335.11
2017-12-12T10:49:38.838Z,98326.78
2017-12-12T10:52:13.081Z,98325.77
2017-12-12T10:54:47.466Z,98328.14
2017-12-12T10:57:24.734Z,98338.64
2017-12-12T10:59:59.194Z,98329.16
2017-12-12T11:02:33.325Z,98337.39
2017-12-12T11:05:13.889Z,98348.86
2017-12-12T11:07:48.452Z,98369.66
2017-12-12T11:10:22.868Z,98368.22
2017-12-12T11:12:57.419Z,98378.51
2017-12-12T11:15:32.274Z,98382.28
2017-12-12T11:18:06.878Z,98376.36
2017-12-12T11:20:41.218Z,98388.09
2017-12-12T11:23:15.657Z,98383.05
2017-12-12T11:25:50.693Z,98393.55
2017-12-12T11:28:25.161Z,98396.80
2017-12-12T11:30:59.748Z,98400.54
2017-12-12T11:33:33.973Z,98409.80
2017-12-12T11:36:08.403Z,98434.56
2017-12-12T11:38:42.957Z,98437.06
2017-12-12T11:41:17.406Z,98422.48
2017-12-12T11:43:52.452Z,98416.30
2017-12-12T11:46:26.975Z,98433.72
2017-12-12T11:49:01.363Z,98429.51
2017-12-12T11:51:35.591Z,98440.64
2017-12-12T11:54:10.085Z,98436.72
2017-12-12T11:56:44.194Z,98434.78
2017-12-12T11:59:19.890Z,98432.30
2017-12-12T12:01:53.929Z,98423.77
2017-12-12T12:04:28.455Z,98431.48
2017-12-12T12:07:02.830Z,98446.69
2017-12-12T12:09:38.145Z,98420.00
2017-12-12T12:12:12.406Z,98447.90
2017-12-12T12:14:46.812Z,98446.91
2017-12-12T12:17:21.297Z,98447.27
2017-12-12T12:19:55.855Z,98451.20
2017-12-12T12:22:29.956Z,98442.50
2017-12-12T12:27:44.346Z,98451.33
2017-12-12T12:30:18.680Z,98450.72
2017-12-12T12:32:52.842Z,98454.66
2017-12-12T12:35:27.470Z,98479.88
2017-12-12T12:38:01.515Z,98473.88
2017-12-12T12:40:35.562Z,98484.83
2017-12-12T12:43:10.094Z,98497.84
2017-12-12T12:45:44.535Z,98508.61
2017-12-12T12:48:18.703Z,98495.69
2017-12-12T12:50:53.430Z,98461.13
2017-12-12T12:53:27.891Z,98524.36
2017-12-12T12:56:02.315Z,98524.32
2017-12-12T12:58:36.866Z,98511.56
2017-12-12T13:01:11.246Z,98509.02
2017-12-12T13:03:45.790Z,98501.95
2017-12-12T13:06:20.366Z,98506.99
2017-12-12T13:08:54.881Z,98508.83
2017-12-12T13:11:29.242Z,98503.95
2017-12-12T13:14:03.659Z,98512.04
2017-12-12T13:16:38.051Z,98522.41
2017-12-12T13:19:12.549Z,98514.65
2017-12-12T13:21:46.902Z,98518.06
2017-12-12T13:24:21.430Z,98525.52
2017-12-12T13:26:55.869Z,98524.83
2017-12-12T13:29:30.259Z,98533.68
2017-12-12T13:32:05.072Z,98532.81
2017-12-12T13:34:39.558Z,98547.84
2017-12-12T13:37:14.726Z,98559.49
2017-12-12T13:39:50.461Z,98557.26
2017-12-12T13:42:25.319Z,98560.13
2017-12-12T13:44:59.905Z,98571.99
2017-12-12T13:47:34.342Z,98548.25
2017-12-12T13:50:10.232Z,98575.23
2017-12-12T13:52:44.798Z,98581.50
2017-12-12T13:55:19.218Z,98575.86
2017-12-12T13:57:53.668Z,98586.73
2017-12-12T14:00:28.119Z,98601.80
2017-12-12T14:03:04.302Z,98609.51
2017-12-12T14:05:38.779Z,98593.35
2017-12-12T14:08:13.251Z,98598.59
2017-12-12T14:10:47.721Z,98606.34
2017-12-12T14:13:22.258Z,98565.63
2017-12-12T14:15:56.413Z,98593.14
2017-12-12T14:18:30.892Z,98605.47
2017-12-12T14:21:05.379Z,98606.00
2017-12-12T14:23:42.532Z,98619.77
2017-12-12T14:26:17.069Z,98608.69
2017-12-12T14:28:52.350Z,98634.19
2017-12-12T14:31:26.899Z,98613.09
2017-12-12T14:34:01.398Z,98625.78
2017-12-12T14:36:35.832Z,98634.05
2017-12-12T14:39:11.097Z,98643.41
2017-12-12T14:41:45.700Z,98631.38
2017-12-12T14:44:20.194Z,98644.74
2017-12-12T14:46:54.744Z,98659.30
2017-12-12T14:49:29.226Z,98665.41
2017-12-12T14:52:03.719Z,98670.38
2017-12-12T14:54:38.305Z,98668.10
2017-12-12T14:57:12.758Z,98650.73
2017-12-12T14:59:47.162Z,98672.23
2017-12-12T15:02:21.667Z,98684.36
2017-12-12T15:04:56.740Z,98694.11
2017-12-12T15:07:31.386Z,98700.79
2017-12-12T15:10:15.066Z,98713.05
2017-12-12T15:12:49.562Z,98712.61
2017-12-12T15:15:24.939Z,98722.64
2017-12-12T15:17:59.962Z,98720.22
2017-12-12T15:20:34.561Z,98718.84
2017-12-12T15:23:09.056Z,98723.00
2017-12-12T15:25:43.628Z,98748.76
2017-12-12T15:28:18.188Z,98758.86
2017-12-12T15:30:52.558Z,98761.41
2017-12-12T15:33:27.037Z,98752.07
2017-12-12T15:36:02.468Z,98756.99
2017-12-12T15:38:37.757Z,98763.90
2017-12-12T15:41:14.013Z,98767.51
2017-12-12T15:43:49.391Z,98774.70
2017-12-12T15:46:25.012Z,98789.89
2017-12-12T15:48:59.571Z,98783.51
2017-12-12T15:51:33.973Z,98809.67
2017-12-12T15:54:09.486Z,98819.59
2017-12-12T15:56:44.398Z,98827.94
2017-12-12T15:59:19.462Z,98831.23
2017-12-12T16:01:53.943Z,98845.95
2017-12-12T16:04:29.018Z,98849.03
2017-12-12T16:07:05.799Z,98848.47
2017-12-12T16:09:41.218Z,98853.29
2017-12-12T16:12:15.610Z,98854.30
2017-12-12T16:14:50.018Z,98861.50
2017-12-12T16:17:24.395Z,98864.33
2017-12-12T16:19:59.833Z,98870.14
2017-12-12T16:22:37.342Z,98864.97
2017-12-12T16:25:14.126Z,98832.35
2017-12-12T16:27:49.325Z,98865.22
2017-12-12T16:30:23.755Z,98856.16
2017-12-12T16:32:59.069Z,98864.03
2017-12-12T16:35:33.277Z,98866.70
2017-12-12T16:38:07.442Z,98869.49
2017-12-12T16:40:41.625Z,98878.41
2017-12-12T16:43:16.230Z,98875.22
2017-12-12T16:45:50.846Z,98875.16
2017-12-12T16:48:25.334Z,98889.27
2017-12-12T16:50:59.779Z,98886.31
2017-12-12T16:53:34.975Z,98908.41
2017-12-12T16:56:09.454Z,98896.45
2017-12-12T16:58:44.000Z,98904.97
2017-12-12T17:01:18.707Z,98918.41
2017-12-12T17:03:53.338Z,98926.41
2017-12-12T17:06:27.954Z,98932.52
2017-12-12T17:09:02.433Z,98927.85
2017-12-12T17:11:36.952Z,98948.06
2017-12-12T17:14:11.471Z,98954.55
2017-12-12T17:16:45.846Z,98947.03
2017-12-12T17:19:20.324Z,98940.87
2017-12-12T17:21:55.868Z,98958.73
2017-12-12T17:24:30.234Z,98944.00
2017-12-12T17:27:04.645Z,98956.27
2017-12-12T17:29:41.107Z,98963.23
2017-12-12T17:32:16.427Z,98969.48
2017-12-12T17:34:52.679Z,98954.53
2017-12-12T17:37:27.225Z,98998.92
2017-12-12T17:40:01.777Z,99013.38
2017-12-12T17:42:36.280Z,99012.20
2017-12-12T17:45:11.745Z,99027.69
2017-12-12T17:47:46.121Z,99030.75
2017-12-12T17:50:20.590Z,99025.69
2017-12-12T17:52:55.029Z,99024.73
2017-12-12T17:55:29.447Z,99024.59
2017-12-12T17:58:03.939Z,99021.42
2017-12-12T18:00:38.331Z,99019.89
2017-12-12T18:03:12.824Z,99016.70
2017-12-12T18:05:47.949Z,99015.34
2017-12-12T18:08:22.434Z,99014.09
2017-12-12T18:10:57.123Z,99025.06
2017-12-12T18:13:31.752Z,99039.50
2017-12-12T18:16:06.344Z,99037.74
2017-12-12T18:18:43.302Z,99043.05
2017-12-12T18:21:18.734Z,99037.25
2017-12-12T18:23:53.333Z,99030.19
2017-12-12T18:26:27.830Z,99023.42
2017-12-12T18:29:02.926Z,99027.34
2017-12-12T18:31:38.554Z,99045.38
2017-12-12T18:34:13.638Z,99049.25
2017-12-12T18:36:48.078Z,99053.08
2017-12-12T18:39:22.580Z,99024.52
2017-12-12T18:44:30.789Z,99036.22
2017-12-12T18:47:05.839Z,99041.69
2017-12-12T18:49:40.408Z,99055.19
2017-12-12T18:52:14.843Z,99047.94
2017-12-12T18:54:49.278Z,99060.94
2017-12-12T18:57:23.997Z,99057.31
2017-12-12T18:59:58.470Z,99047.30
2017-12-12T19:02:32.889Z,99048.48
2017-12-12T19:05:14.396Z,99050.63
2017-12-12T19:07:48.977Z,99054.17
2017-12-12T19:10:23.353Z,99058.93
2017-12-12T19:12:58.482Z,99061.89
2017-12-12T19:15:32.999Z,99054.61
2017-12-12T19:18:07.686Z,99018.73
2017-12-12T19:20:42.214Z,99073.69
2017-12-12T19:23:16.694Z,99083.62
2017-12-12T19:25:51.158Z,99079.95
2017-12-12T19:28:26.462Z,99084.47
2017-12-12T19:31:01.034Z,99069.84
2017-12-12T19:33:35.606Z,99103.80
2017-12-12T19:36:10.071Z,99108.32
2017-12-12T19:38:44.584Z,99117.98
2017-12-12T19:41:18.990Z,99118.48
2017-12-12T19:43:53.498Z,99112.89
2017-12-12T19:46:27.922Z,99119.91
2017-12-12T19:49:02.307Z,99126.73
2017-12-12T19:51:36.769Z,99139.30
2017-12-12T19:54:11.268Z,99142.30
2017-12-12T19:56:45.661Z,99150.05
2017-12-12T19:59:20.213Z,99155.20
2017-12-12T20:01:55.633Z,99149.29
2017-12-12T20:04:30.182Z,99150.77
2017-12-12T20:07:04.615Z,99155.37
2017-12-12T20:09:38.967Z,99142.72
2017-12-12T20:12:13.310Z,99175.80
2017-12-12T20:14:47.422Z,99182.89
2017-12-12T20:17:22.336Z,99183.23
2017-12-12T20:19:56.920Z,99189.34
2017-12-12T20:22:31.869Z,99182.96
2017-12-12T20:25:11.197Z,99180.15
2017-12-12T20:27:45.778Z,99183.76
2017-12-12T20:30:20.208Z,99200.00
2017-12-12T20:32:54.734Z,99199.41
2017-12-12T20:35:29.414Z,99202.49
2017-12-12T20:38:04.068Z,99206.11
2017-12-12T20:40:38.451Z,99197.66
2017-12-12T20:43:12.814Z,99221.07
2017-12-12T20:45:47.260Z,99221.14
2017-12-12T20:48:21.742Z,99217.15
2017-12-12T20:50:56.162Z,99226.98
2017-12-12T20:53:30.730Z,99222.62
2017-12-12T20:56:06.284Z,99218.78
2017-12-12T20:58:40.777Z,99210.05
2017-12-12T21:01:15.144Z,99229.61
2017-12-12T21:03:49.621Z,99229.95
2017-12-12T21:06:24.030Z,99189.86
2017-12-12T21:08:58.506Z,99229.50
2017-12-12T21:11:33.025Z,99227.94
2017-12-12T21:14:07.580Z,99241.21
2017-12-12T21:16:42.185Z,99245.08
2017-12-12T21:19:16.572Z,99250.80
2017-12-12T21:21:51.028Z,99240.09
2017-12-12T21:24:26.138Z,99243.81
2017-12-12T21:27:00.502Z,99245.55
2017-12-12T21:29:34.977Z,99264.36
2017-12-12T21:32:09.385Z,99257.17
2017-12-12T21:34:43.831Z,99264.02
2017-12-12T21:37:18.228Z,99253.65
2017-12-12T21:39:52.744Z,99257.75
2017-12-12T21:42:27.880Z,99267.71
2017-12-12T21:45:02.566Z,99277.59
2017-12-12T21:47:42.503Z,99284.52
2017-12-12T21:50:18.717Z,99283.20
2017-12-12T21:52:54.078Z,99289.92
2017-12-12T21:55:29.552Z,99297.91
2017-12-12T21:58:04.062Z,99293.26
2017-12-12T22:00:38.531Z,99300.66
2017-12-12T22:03:13.142Z,99304.06
2017-12-12T22:05:48.295Z,99314.70
2017-12-12T22:08:22.843Z,99317.50
2017-12-12T22:10:57.224Z,99321.25
2017-12-12T22:13:31.849Z,99315.45
2017-12-12T22:16:06.427Z,99320.44
2017-12-12T22:18:40.841Z,99315.34
2017-12-12T22:21:15.926Z,99314.12
2017-12-12T22:23:51.102Z,99314.87
2017-12-12T22:26:25.902Z,99307.87
2017-12-12T22:29:00.291Z,99314.93
2017-12-12T22:31:35.935Z,99315.67
2017-12-12T22:34:10.412Z,99311.84
2017-12-12T22:36:44.762Z,99323.19
2017-12-12T22:39:19.147Z,99341.06
2017-12-12T22:41:53.484Z,99329.63
2017-12-12T22:44:28.375Z,99333.94
2017-12-12T22:47:02.830Z,99340.95
2017-12-12T22:49:37.402Z,99342.03
2017-12-12T22:52:11.795Z,99345.00
2017-12-12T22:54:46.166Z,99335.14
2017-12-12T22:57:20.591Z,99345.27
2017-12-12T22:59:55.145Z,99336.88
2017-12-12T23:02:29.606Z,99341.47
2017-12-12T23:05:14.267Z,99341.30
2017-12-12T23:07:48.837Z,99342.38
2017-12-12T23:10:23.234Z,99295.40
2017-12-12T23:12:59.313Z,99344.56
2017-12-12T23:15:34.468Z,99347.71
2017-12-12T23:18:08.917Z,99347.91
2017-12-12T23:20:43.818Z,99351.84
2017-12-12T23:23:18.430Z,99362.91
2017-12-12T23:25:52.311Z,99356.17
2017-12-12T23:28:26.894Z,99367.66
2017-12-12T23:31:01.367Z,99365.70
2017-12-12T23:33:35.744Z,99346.56
2017-12-12T23:36:10.088Z,99352.56
2017-12-12T23:38:44.939Z,99357.41
2017-12-12T23:41:19.283Z,99361.91
2017-12-12T23:43:53.672Z,99349.97
2017-12-12T23:46:28.030Z,99360.84
2017-12-12T23:49:02.387Z,99353.17
2017-12-12T23:51:36.762Z,99348.95
2017-12-12T23:54:11.151Z,99350.50
2017-12-12T23:56:45.599Z,99337.05
2017-12-12T23:59:20.409Z,99327.20
